Time;durP1;ratioP1;P1;durP2;ratioP2;P2;SDS_P1;SDS_P2;PMS_P1;PMS_P2;Temp;Humidity;BMP_temperature;BMP_pressure;BME280_temperature;BME280_humidity;BME280_pressure;Samples;Min_cycle;Max_cycle;Signal;HPM_P1;HPM_P2
2022/09/18 00:02:31;;;;;;;2.60;1.17;;;;;;;11.68;81.36;100727.66;6300224;28;20241;-77
2022/09/18 00:05:52;;;;;;;2.53;0.80;;;;;;;11.68;80.96;100733.06;6297729;28;20241;-78
2022/09/18 00:09:15;;;;;;;3.07;1.00;;;;;;;11.55;81.62;100717.13;6305014;28;20541;-77
2022/09/18 00:12:36;;;;;;;3.57;1.43;;;;;;;11.39;82.46;100737.63;6291582;28;20226;-78
2022/09/18 00:15:57;;;;;;;3.73;1.80;;;;;;;11.49;81.82;100733.94;6297055;28;20219;-78
2022/09/18 00:19:20;;;;;;;3.90;1.27;;;;;;;11.27;82.94;100734.22;6303440;28;20659;-78
2022/09/18 00:22:41;;;;;;;5.57;1.57;;;;;;;11.27;82.15;100745.88;6289616;28;20226;-77
2022/09/18 00:26:02;;;;;;;6.20;1.40;;;;;;;11.35;82.14;100749.72;6302398;28;20297;-78
2022/09/18 00:29:23;;;;;;;4.80;1.33;;;;;;;11.36;82.13;100756.81;6295289;28;20238;-79
2022/09/18 00:32:43;;;;;;;2.27;0.90;;;;;;;11.44;81.59;100751.53;6287693;28;20604;-78
2022/09/18 00:36:09;;;;;;;5.73;2.27;;;;;;;11.54;80.93;100746.97;6281885;28;20219;-77
2022/09/18 00:39:30;;;;;;;2.50;0.93;;;;;;;11.47;80.95;100745.88;6302509;28;20242;-77
2022/09/18 00:42:51;;;;;;;2.30;1.10;;;;;;;11.39;81.26;100748.44;6284940;28;20227;-77
2022/09/18 00:46:23;;;;;;;1.00;0.90;;;;;;;11.49;81.11;100758.22;6282851;28;20226;-78
2022/09/18 00:49:47;;;;;;;1.67;1.13;;;;;;;11.45;80.55;100756.81;6296759;28;20230;-78
2022/09/18 00:53:10;;;;;;;1.93;1.07;;;;;;;11.58;80.54;100764.56;6298990;28;20317;-77
2022/09/18 00:56:31;;;;;;;1.50;1.37;;;;;;;11.59;80.51;100756.34;6562390;22;20238;-77
2022/09/18 00:59:53;;;;;;;1.87;1.67;;;;;;;11.61;78.38;100757.06;6291234;28;20227;-76
2022/09/18 01:03:13;;;;;;;10.00;1.37;;;;;;;11.56;79.43;100767.44;6284496;28;20253;-77
2022/09/18 01:06:43;;;;;;;1.43;0.97;;;;;;;11.58;78.98;100756.47;6279948;28;20559;-76
2022/09/18 01:10:20;;;;;;;4.73;1.10;;;;;;;11.54;79.08;100745.13;6271840;28;20606;-78
2022/09/18 01:13:53;;;;;;;3.97;1.87;;;;;;;11.47;78.90;100737.75;6298560;28;20227;-76
2022/09/18 01:17:20;;;;;;;0.73;0.73;;;;;;;11.46;79.03;100745.00;6274758;28;20234;-77
2022/09/18 01:21:07;;;;;;;1.40;1.00;;;;;;;11.58;78.64;100743.84;6296428;28;20234;-76
2022/09/18 01:24:44;;;;;;;1.87;1.17;;;;;;;11.61;79.14;100742.69;6274679;28;20226;-76
2022/09/18 01:28:16;;;;;;;3.23;2.40;;;;;;;11.65;78.71;100736.84;6285471;28;20231;-77
2022/09/18 01:31:46;;;;;;;3.37;1.00;;;;;;;11.53;78.27;100732.63;6287948;28;20222;-76
2022/09/18 01:35:15;;;;;;;4.97;1.37;;;;;;;11.57;77.94;100733.19;6276815;28;20243;-77
2022/09/18 01:38:42;;;;;;;1.83;1.20;;;;;;;11.59;77.29;100733.88;6282369;28;20690;-76
2022/09/18 01:42:06;;;;;;;3.20;1.33;;;;;;;11.48;78.10;100742.16;6279017;28;20514;-75
2022/09/18 01:45:33;;;;;;;8.13;1.40;;;;;;;11.42;78.14;100745.44;6273640;28;20230;-76
2022/09/18 01:49:01;;;;;;;3.43;3.13;;;;;;;11.37;77.55;100750.44;6276264;28;21063;-76
2022/09/18 01:52:27;;;;;;;2.30;1.37;;;;;;;11.21;77.40;100751.84;6302000;28;20225;-77
2022/09/18 01:55:54;;;;;;;4.47;1.20;;;;;;;11.27;77.32;100745.03;6295045;28;20234;-77
2022/09/18 01:59:21;;;;;;;3.20;1.10;;;;;;;11.28;77.68;100752.97;6282509;28;20610;-75
2022/09/18 02:02:52;;;;;;;6.73;1.20;;;;;;;11.07;80.29;100756.84;6272433;28;20517;-76
2022/09/18 02:06:22;;;;;;;6.47;1.20;;;;;;;11.07;80.65;100763.09;6282125;28;20256;-75
2022/09/18 02:09:44;;;;;;;12.90;2.23;;;;;;;10.86;81.15;100762.38;6292422;28;20219;-77
2022/09/18 02:13:08;;;;;;;2.00;1.00;;;;;;;10.85;81.55;100766.03;6277692;28;20227;-77
2022/09/18 02:16:35;;;;;;;2.07;1.33;;;;;;;10.99;80.69;100752.13;6274328;28;20638;-76
2022/09/18 02:20:01;;;;;;;5.40;1.93;;;;;;;10.87;81.45;100755.97;6284898;28;20329;-77
2022/09/18 02:23:23;;;;;;;1.33;1.10;;;;;;;10.81;81.46;100753.84;6288771;28;20246;-77
2022/09/18 02:26:47;;;;;;;4.20;1.27;;;;;;;10.74;81.37;100744.63;6269436;28;20222;-76
2022/09/18 02:30:10;;;;;;;9.27;1.47;;;;;;;10.74;81.50;100751.84;6298007;28;20227;-78
2022/09/18 02:33:33;;;;;;;1.60;1.03;;;;;;;10.77;81.14;100747.03;6302871;28;20826;-77
2022/09/18 02:37:22;;;;;;;4.27;2.17;;;;;;;10.77;81.23;100751.56;6302623;28;20254;-77
2022/09/18 02:40:54;;;;;;;2.87;1.17;;;;;;;10.70;81.65;100740.47;6293901;28;20480;-77
2022/09/18 02:44:19;;;;;;;3.20;1.10;;;;;;;10.65;82.44;100731.97;6286778;28;20615;-77
2022/09/18 02:48:01;;;;;;;1.63;1.10;;;;;;;10.67;81.87;100735.38;6283520;28;21124;-78
2022/09/18 02:51:31;;;;;;;4.43;0.93;;;;;;;10.71;81.83;100728.72;6288911;28;21113;-78
2022/09/18 02:54:57;;;;;;;4.70;1.93;;;;;;;10.69;81.74;100725.31;6293472;28;20778;-76
2022/09/18 02:58:24;;;;;;;2.43;1.33;;;;;;;10.76;80.91;100723.75;6287097;28;20979;-77
2022/09/18 03:01:48;;;;;;;2.67;1.20;;;;;;;10.76;81.95;100731.84;6283860;28;20230;-77
2022/09/18 03:05:11;;;;;;;1.90;1.00;;;;;;;10.73;80.83;100721.34;6286729;28;21582;-75
2022/09/18 03:08:48;;;;;;;1.57;1.47;;;;;;;10.61;81.38;100727.84;6303316;28;20226;-76
2022/09/18 03:12:11;;;;;;;3.30;1.17;;;;;;;10.72;80.63;100729.56;6282317;28;20231;-77
2022/09/18 03:15:35;;;;;;;3.30;0.93;;;;;;;10.72;80.44;100722.31;6283019;28;21131;-77
2022/09/18 03:18:56;;;;;;;1.83;1.53;;;;;;;10.73;80.37;100728.56;6285687;28;20313;-77
2022/09/18 03:22:17;;;;;;;3.57;1.30;;;;;;;10.79;80.90;100742.34;6281829;28;20230;-77
2022/09/18 03:25:38;;;;;;;1.60;0.70;;;;;;;10.87;80.88;100733.53;6276741;28;20235;-75
2022/09/18 03:29:01;;;;;;;1.43;0.80;;;;;;;11.00;80.62;100729.56;6287049;28;20234;-76
2022/09/18 03:32:24;;;;;;;1.77;0.80;;;;;;;10.77;80.76;100728.16;6281662;28;20606;-76
2022/09/18 03:35:46;;;;;;;3.10;0.83;;;;;;;10.82;80.79;100736.69;6273041;28;20308;-77
2022/09/18 03:39:08;;;;;;;2.93;1.07;;;;;;;10.73;79.73;100723.16;6278536;28;20226;-78
2022/09/18 03:42:29;;;;;;;1.03;0.83;;;;;;;10.65;80.25;100721.19;6275403;28;20231;-75
2022/09/18 03:45:55;;;;;;;1.90;1.03;;;;;;;10.60;81.01;100730.69;6278087;28;20242;-77
2022/09/18 03:49:16;;;;;;;3.83;1.30;;;;;;;10.48;80.99;100729.09;6301352;28;20256;-76
2022/09/18 03:52:38;;;;;;;12.30;1.40;;;;;;;10.49;80.80;100728.13;6269819;28;20550;-76
2022/09/18 03:56:22;;;;;;;1.27;1.20;;;;;;;10.53;80.70;100719.63;6285016;28;20524;-76
2022/09/18 03:59:56;;;;;;;5.37;0.90;;;;;;;10.45;80.27;100720.31;6281430;28;20230;-77
2022/09/18 04:03:21;;;;;;;1.00;0.77;;;;;;;10.42;79.53;100726.00;6296201;28;20214;-77
2022/09/18 04:07:02;;;;;;;1.80;0.60;;;;;;;10.51;79.70;100716.22;6274515;28;20230;-76
2022/09/18 04:10:55;;;;;;;8.37;2.53;;;;;;;10.42;80.41;100720.59;6254371;28;20313;-76
2022/09/18 04:14:17;;;;;;;2.77;0.83;;;;;;;10.52;79.87;100727.81;6283503;28;20541;-76
2022/09/18 04:17:39;;;;;;;6.70;0.97;;;;;;;10.59;79.41;100726.28;6277715;28;20735;-75
2022/09/18 04:21:01;;;;;;;4.10;1.10;;;;;;;10.58;79.45;100721.88;6285266;28;20313;-75
2022/09/18 04:24:23;;;;;;;1.70;1.03;;;;;;;10.49;79.43;100723.59;6279240;28;20231;-75
2022/09/18 04:27:44;;;;;;;2.10;0.57;;;;;;;10.56;79.30;100735.50;6274409;28;20309;-76
2022/09/18 04:31:06;;;;;;;2.20;1.30;;;;;;;10.65;79.09;100737.38;6278358;28;20226;-77
2022/09/18 04:34:28;;;;;;;3.43;0.90;;;;;;;10.71;78.94;100760.22;6279388;28;20234;-76
2022/09/18 04:37:50;;;;;;;4.67;1.20;;;;;;;10.55;80.84;100752.69;6280046;28;20227;-75
2022/09/18 04:41:12;;;;;;;2.40;0.67;;;;;;;10.39;82.33;100749.66;6277999;28;20533;-76
2022/09/18 04:44:38;;;;;;;1.67;1.43;;;;;;;10.33;82.53;100723.25;6292963;28;20313;-77
2022/09/18 04:47:59;;;;;;;2.70;0.77;;;;;;;10.22;82.72;100720.69;6267159;28;20238;-77
2022/09/18 04:51:24;;;;;;;2.90;1.03;;;;;;;10.23;82.40;100725.06;6270249;28;20234;-76
2022/09/18 04:54:46;;;;;;;2.13;1.73;;;;;;;10.31;82.22;100720.72;6267999;28;20765;-77
2022/09/18 04:58:08;;;;;;;2.67;0.83;;;;;;;10.14;83.50;100732.13;6281915;28;20254;-76
2022/09/18 05:01:30;;;;;;;1.23;0.70;;;;;;;10.08;83.42;100726.41;6280524;28;20643;-76
2022/09/18 05:04:53;;;;;;;3.17;0.97;;;;;;;10.04;83.87;100722.28;6296055;28;20285;-75
2022/09/18 05:08:23;;;;;;;4.87;1.70;;;;;;;9.99;84.10;100716.47;6280384;28;20318;-77
2022/09/18 05:11:46;;;;;;;1.77;1.30;;;;;;;10.19;83.14;100724.50;6261267;28;20487;-76
2022/09/18 05:15:08;;;;;;;4.80;0.93;;;;;;;10.31;83.31;100718.00;6283031;28;20226;-75
2022/09/18 05:18:29;;;;;;;1.13;0.93;;;;;;;10.17;84.23;100720.25;6280685;28;20230;-75
2022/09/18 05:21:52;;;;;;;1.03;0.90;;;;;;;10.20;84.33;100728.06;6272205;28;20505;-76
2022/09/18 05:25:15;;;;;;;5.83;1.60;;;;;;;10.19;84.30;100729.91;6279948;28;20226;-76
2022/09/18 05:28:37;;;;;;;1.50;1.00;;;;;;;10.45;83.09;100739.16;6280573;28;20231;-78
2022/09/18 05:31:58;;;;;;;2.20;1.37;;;;;;;10.53;82.99;100748.41;6280827;28;20230;-75
2022/09/18 05:35:20;;;;;;;3.37;1.03;;;;;;;10.54;83.33;100760.88;6273850;28;20234;-76
2022/09/18 05:38:41;;;;;;;1.20;1.10;;;;;;;10.48;82.73;100756.91;6280741;28;20230;-76
2022/09/18 05:42:03;;;;;;;3.67;1.63;;;;;;;10.54;83.19;100750.97;6283334;28;20235;-75
2022/09/18 05:45:26;;;;;;;2.60;0.90;;;;;;;10.22;84.29;100743.06;6275804;28;20321;-76
2022/09/18 05:48:48;;;;;;;4.40;0.97;;;;;;;10.32;83.91;100735.03;6291107;28;20234;-76
2022/09/18 05:52:09;;;;;;;0.83;0.77;;;;;;;10.29;83.40;100735.31;6281760;28;20226;-76
2022/09/18 05:55:31;;;;;;;1.80;0.80;;;;;;;10.25;84.12;100733.88;6260929;28;20235;-77
2022/09/18 05:58:53;;;;;;;1.97;1.20;;;;;;;10.21;84.19;100736.00;6279647;28;20536;-76
2022/09/18 06:02:15;;;;;;;2.60;2.07;;;;;;;10.29;84.45;100746.94;6268144;28;21227;-77
2022/09/18 06:05:53;;;;;;;1.70;1.43;;;;;;;10.47;82.91;100744.44;6277137;28;20226;-76
2022/09/18 06:09:15;;;;;;;3.60;1.00;;;;;;;10.28;83.97;100747.91;6275650;28;20314;-77
2022/09/18 06:12:36;;;;;;;7.00;1.57;;;;;;;10.22;83.83;100744.94;6299874;28;20219;-76
2022/09/18 06:15:57;;;;;;;6.73;2.20;;;;;;;10.36;84.25;100737.31;6297737;28;20254;-77
2022/09/18 06:19:39;;;;;;;2.87;2.10;;;;;;;10.29;84.03;100741.56;6282251;28;20246;-77
2022/09/18 06:23:01;;;;;;;3.17;1.23;;;;;;;10.60;83.03;100738.78;6263880;28;20242;-75
2022/09/18 06:26:32;;;;;;;9.00;2.77;;;;;;;10.56;83.55;100742.72;6274452;28;20261;-76
2022/09/18 06:29:53;;;;;;;1.93;1.10;;;;;;;10.69;83.42;100737.94;6275244;28;20241;-76
2022/09/18 06:33:25;;;;;;;2.57;1.00;;;;;;;10.74;82.28;100741.06;6286942;28;20246;-76
2022/09/18 06:36:47;;;;;;;1.57;0.93;;;;;;;10.20;84.56;100736.97;6286490;28;20234;-78
2022/09/18 06:40:18;;;;;;;1.60;0.93;;;;;;;10.17;84.40;100741.78;6280367;28;21566;-78
2022/09/18 06:43:59;;;;;;;1.07;0.83;;;;;;;10.43;83.72;100749.22;6282519;28;20858;-78
2022/09/18 06:47:29;;;;;;;3.03;1.17;;;;;;;10.73;82.20;100748.28;6272741;28;20238;-77
2022/09/18 06:50:51;;;;;;;3.70;1.43;;;;;;;10.55;82.12;100747.28;6278497;28;20233;-79
2022/09/18 06:54:14;;;;;;;1.47;1.13;;;;;;;10.11;83.24;100736.97;6282825;28;20249;-77
2022/09/18 06:57:35;;;;;;;6.30;1.10;;;;;;;10.00;84.14;100737.88;6281529;28;20254;-77
2022/09/18 07:00:59;;;;;;;1.80;0.93;;;;;;;10.05;84.03;100734.78;6284736;28;20227;-78
2022/09/18 07:04:24;;;;;;;2.80;1.33;;;;;;;10.32;83.42;100735.91;6284205;28;20529;-77
2022/09/18 07:07:46;;;;;;;2.50;1.50;;;;;;;10.85;81.56;100735.53;6272930;28;20250;-77
2022/09/18 07:11:08;;;;;;;2.10;0.90;;;;;;;10.94;80.40;100749.03;6280357;28;20250;-78
2022/09/18 07:14:30;;;;;;;2.83;2.10;;;;;;;10.77;81.96;100733.53;6279253;28;20231;-77
2022/09/18 07:17:58;;;;;;;1.60;1.00;;;;;;;10.27;83.39;100737.28;6270488;28;20246;-78
2022/09/18 07:21:19;;;;;;;2.77;0.93;;;;;;;10.39;83.51;100737.03;6290724;28;20615;-77
2022/09/18 07:24:40;;;;;;;3.07;0.93;;;;;;;10.62;82.58;100720.63;6277788;28;20223;-76
2022/09/18 07:28:06;;;;;;;1.73;1.00;;;;;;;10.78;81.90;100732.56;6288624;28;20231;-79
2022/09/18 07:31:28;;;;;;;7.83;1.00;;;;;;;10.78;81.90;100718.22;6277825;28;20821;-76
2022/09/18 07:34:50;;;;;;;1.10;0.83;;;;;;;10.84;80.90;100723.91;6280685;28;20231;-80
2022/09/18 07:38:20;;;;;;;2.57;1.00;;;;;;;10.91;80.11;100718.81;6271441;28;20523;-78
2022/09/18 07:41:46;;;;;;;3.93;1.20;;;;;;;10.91;81.48;100718.81;6279214;28;20226;-79
2022/09/18 07:45:09;;;;;;;1.53;1.20;;;;;;;10.87;80.79;100726.31;6297172;28;20812;-80
2022/09/18 07:48:31;;;;;;;10.10;1.67;;;;;;;11.26;79.95;100717.19;6266984;28;20270;-78
2022/09/18 07:52:02;;;;;;;1.43;1.33;;;;;;;11.55;78.89;100709.03;6264931;28;20309;-78
2022/09/18 07:55:27;;;;;;;4.77;1.17;;;;;;;11.83;78.47;100718.91;6273772;28;20218;-81
2022/09/18 07:58:48;;;;;;;2.67;1.10;;;;;;;11.73;78.25;100717.25;6272504;28;20230;-79
2022/09/18 08:02:21;;;;;;;2.17;1.43;;;;;;;11.32;78.17;100715.78;6278643;28;21970;-80
2022/09/18 08:05:44;;;;;;;3.83;0.90;;;;;;;11.48;77.79;100715.16;6282044;28;20230;-85
2022/09/18 08:09:11;;;;;;;6.17;1.73;;;;;;;11.48;78.61;100713.31;6268134;28;20228;-93
2022/09/18 08:12:58;;;;;;;3.37;0.73;;;;;;;12.13;76.90;100717.78;6275078;28;20230;-75
2022/09/18 08:16:35;;;;;;;2.30;1.30;;;;;;;12.17;75.48;100718.34;6274188;28;20646;-74
2022/09/18 08:20:09;;;;;;;1.03;0.80;;;;;;;11.28;80.02;100722.47;6269283;28;20326;-74
2022/09/18 08:23:37;;;;;;;1.47;1.37;;;;;;;11.15;81.36;100722.75;6275171;28;20230;-74
2022/09/18 08:27:02;;;;;;;8.77;2.03;;;;;;;11.12;81.20;100723.03;6276171;28;20231;-74
2022/09/18 08:30:24;;;;;;;4.33;1.97;;;;;;;11.41;80.17;100716.75;6274209;28;20678;-75
2022/09/18 08:33:49;;;;;;;2.40;1.27;;;;;;;11.92;79.06;100706.38;6280482;28;20333;-76
2022/09/18 08:37:12;;;;;;;2.27;1.00;;;;;;;12.48;75.84;100703.50;6277158;28;20324;-75
2022/09/18 08:41:12;;;;;;;2.13;0.97;;;;;;;12.03;76.76;100720.56;6263716;28;20262;-76
2022/09/18 08:44:39;;;;;;;2.07;1.30;;;;;;;12.19;77.21;100710.94;6263842;28;20245;-75
2022/09/18 08:48:07;;;;;;;2.00;1.00;;;;;;;11.86;77.23;100707.81;6284137;28;20231;-75
2022/09/18 08:51:40;;;;;;;0.93;0.93;;;;;;;12.46;76.22;100700.09;6269367;28;20234;-76
2022/09/18 08:55:07;;;;;;;2.03;1.63;;;;;;;12.97;74.65;100697.56;6265885;28;20238;-74
2022/09/18 08:58:46;;;;;;;1.70;0.77;;;;;;;13.58;72.50;100682.13;6274016;28;20231;-75
2022/09/18 09:02:37;;;;;;;1.70;0.97;;;;;;;14.15;70.88;100685.97;6271684;28;20234;-76
2022/09/18 09:06:01;;;;;;;3.33;1.53;;;;;;;13.62;71.34;100682.69;6283388;28;20245;-75
2022/09/18 09:09:42;;;;;;;6.23;1.67;;;;;;;12.79;72.76;100683.19;6278563;28;20345;-76
2022/09/18 09:13:22;;;;;;;2.70;0.90;;;;;;;12.29;74.85;100717.97;6281604;28;20237;-75
2022/09/18 09:16:45;;;;;;;1.03;0.77;;;;;;;12.08;76.49;100700.34;6277651;28;20218;-75
2022/09/18 09:20:19;;;;;;;0.67;0.67;;;;;;;11.94;74.15;100686.31;6278402;28;20246;-74
2022/09/18 09:23:52;;;;;;;0.57;0.40;;;;;;;12.46;72.72;100689.28;6268278;28;20619;-74
2022/09/18 09:27:43;;;;;;;0.83;0.83;;;;;;;12.94;70.64;100702.41;6261437;28;20230;-75
2022/09/18 09:31:34;;;;;;;1.60;1.57;;;;;;;12.48;72.04;100715.16;6283425;28;20234;-75
2022/09/18 09:35:25;;;;;;;4.67;1.53;;;;;;;12.52;72.68;100710.28;6236285;28;20218;-74
2022/09/18 09:39:20;;;;;;;0.67;0.67;;;;;;;12.44;70.92;100705.66;6267630;28;20219;-75
2022/09/18 09:42:48;;;;;;;1.67;0.70;;;;;;;12.26;72.11;100695.81;6281452;28;20250;-77
2022/09/18 09:46:17;;;;;;;2.33;1.40;;;;;;;12.23;74.08;100685.28;6273788;28;20230;-73
2022/09/18 09:49:54;;;;;;;2.73;0.80;;;;;;;13.81;73.70;100671.59;6283088;28;20330;-75
2022/09/18 09:53:16;;;;;;;4.77;4.37;;;;;;;14.59;68.06;100673.09;6280720;28;22315;-77
2022/09/18 09:56:49;;;;;;;4.60;4.37;;;;;;;13.92;71.55;100673.16;6279049;28;20663;-71
2022/09/18 10:00:16;;;;;;;13.13;7.30;;;;;;;13.54;70.67;100679.91;6278504;28;20219;-76
2022/09/18 10:03:51;;;;;;;19.47;17.60;;;;;;;12.85;72.12;100672.59;6258132;28;20242;-86
2022/09/18 10:07:23;;;;;;;38.27;31.87;;;;;;;12.94;70.61;100678.06;6261977;28;21928;-75
2022/09/18 10:10:52;;;;;;;2.60;1.63;;;;;;;12.13;71.20;100684.50;6234182;28;21614;-76
2022/09/18 10:14:19;;;;;;;1.27;0.70;;;;;;;11.89;72.23;100682.38;6272127;28;20235;-77
2022/09/18 10:17:42;;;;;;;1.03;1.03;;;;;;;12.58;70.44;100679.94;6265331;28;20227;-75
2022/09/18 10:21:09;;;;;;;2.20;0.93;;;;;;;13.54;68.78;100678.06;6263747;28;20234;-77
2022/09/18 10:24:43;;;;;;;0.57;0.57;;;;;;;13.70;67.44;100684.59;6257046;28;20242;-77
2022/09/18 10:28:04;;;;;;;3.23;0.90;;;;;;;13.76;65.83;100676.66;6269578;28;20230;-79
2022/09/18 10:31:46;;;;;;;1.80;0.87;;;;;;;14.34;64.63;100684.88;6268931;28;20242;-77
2022/09/18 10:35:40;;;;;;;2.57;1.00;;;;;;;14.70;63.53;100680.06;6276626;28;20547;-77
2022/09/18 10:39:15;;;;;;;2.77;1.30;;;;;;;16.14;58.63;100670.03;6292404;28;20234;-81
2022/09/18 10:42:38;;;;;;;3.20;0.80;;;;;;;16.72;56.23;100659.50;6280974;28;20235;-77
2022/09/18 10:46:24;;;;;;;2.10;0.90;;;;;;;14.66;62.80;100667.84;6287817;28;20238;-77
2022/09/18 10:49:50;;;;;;;0.73;0.73;;;;;;;12.83;68.81;100704.38;6301040;28;20231;-78
2022/09/18 10:53:29;;;;;;;5.67;0.93;;;;;;;12.05;77.58;100728.50;6280684;28;20318;-73
2022/09/18 10:57:17;;;;;;;0.50;0.50;;;;;;;11.22;78.18;100702.28;6294662;28;20238;-73
2022/09/18 11:00:45;;;;;;;2.63;1.30;;;;;;;11.11;80.82;100664.69;6288917;28;20234;-73
2022/09/18 11:04:15;;;;;;;2.97;1.23;;;;;;;11.95;79.40;100676.38;6264943;28;21045;-73
2022/09/18 11:07:38;;;;;;;1.27;0.90;;;;;;;13.42;75.34;100673.91;6276920;28;20222;-72
2022/09/18 11:11:05;;;;;;;2.07;0.90;;;;;;;17.69;64.91;100661.38;6291940;28;20698;-72
2022/09/18 11:14:30;;;;;;;4.07;2.03;;;;;;;22.80;46.38;100649.06;6285202;28;20310;-72
2022/09/18 11:18:03;;;;;;;0.93;0.60;;;;;;;24.07;42.10;100633.78;6274812;28;20230;-75
2022/09/18 11:21:24;;;;;;;0.70;0.38;;;;;;;25.83;37.44;100629.38;6289154;28;20544;-76
2022/09/18 11:24:45;;;;;;;1.83;1.05;;;;;;;24.82;36.29;100624.09;6294370;28;20219;-76
2022/09/18 11:28:21;;;;;;;1.38;0.55;;;;;;;24.41;38.17;100618.50;6267410;28;20620;-76
2022/09/18 11:31:46;;;;;;;1.35;0.30;;;;;;;22.82;38.33;100616.69;6270503;28;20526;-77
2022/09/18 11:35:16;;;;;;;0.60;0.55;;;;;;;24.23;35.19;100638.66;6282153;28;20650;-78
2022/09/18 11:38:40;;;;;;;2.95;0.75;;;;;;;24.44;33.11;100616.13;6283390;28;20245;-78
2022/09/18 11:42:07;;;;;;;0.75;0.32;;;;;;;25.86;32.88;100628.91;6272270;28;20243;-78
2022/09/18 11:45:49;;;;;;;2.25;0.40;;;;;;;24.29;32.98;100626.72;6291988;28;20230;-85
2022/09/18 11:49:16;;;;;;;0.50;0.50;;;;;;;21.23;37.81;100633.88;6272855;28;20235;-86
2022/09/18 11:52:44;;;;;;;0.93;0.55;;;;;;;20.18;41.15;100648.31;6275710;28;20257;-77
2022/09/18 11:56:17;;;;;;;1.15;0.68;;;;;;;18.95;42.30;100656.25;6275485;28;20917;-89
2022/09/18 11:59:42;;;;;;;4.40;1.88;;;;;;;17.44;48.45;100661.59;6273846;28;20722;-87
2022/09/18 12:03:15;;;;;;;0.82;0.40;;;;;;;15.70;54.35;100647.94;6268415;28;20235;-85
2022/09/18 12:06:48;;;;;;;1.00;0.70;;;;;;;15.47;58.75;100652.41;6294526;28;20232;-89
2022/09/18 12:10:20;;;;;;;0.77;0.75;;;;;;;14.91;61.32;100645.13;6302364;28;20231;-83
2022/09/18 12:13:50;;;;;;;0.93;0.75;;;;;;;14.99;60.98;100631.56;6285813;28;20775;-76
2022/09/18 12:17:16;;;;;;;0.50;0.50;;;;;;;15.08;60.19;100628.66;6288655;28;20226;-83
2022/09/18 12:20:42;;;;;;;3.50;1.10;;;;;;;17.65;53.66;100614.53;6283881;28;20231;-88
2022/09/18 12:24:13;;;;;;;2.00;1.15;;;;;;;22.68;40.71;100602.19;6284733;28;20597;-86
2022/09/18 12:27:41;;;;;;;2.88;1.13;;;;;;;22.42;39.08;100594.06;6267649;28;20920;-85
2022/09/18 12:31:11;;;;;;;2.20;0.70;;;;;;;23.53;37.10;100607.00;6288705;28;20226;-81
2022/09/18 12:34:43;;;;;;;1.33;0.70;;;;;;;24.40;34.73;100586.50;6302894;28;20226;-81
2022/09/18 12:38:18;;;;;;;1.83;0.88;;;;;;;24.55;35.35;100609.81;6298544;28;20226;-80
2022/09/18 12:41:56;;;;;;;1.30;0.70;;;;;;;18.20;48.24;100623.06;6290841;28;20321;-80
2022/09/18 12:45:55;;;;;;;3.28;1.10;;;;;;;16.00;57.30;100620.78;6287993;28;20250;-79
2022/09/18 12:49:55;;;;;;;4.80;0.95;;;;;;;16.62;55.72;100609.91;6310857;28;20226;-82
2022/09/18 12:53:35;;;;;;;2.03;1.60;;;;;;;18.21;51.20;100616.53;6304157;28;20250;-81
2022/09/18 12:57:13;;;;;;;1.60;1.00;;;;;;;18.31;53.14;100608.88;6289593;28;20244;-81
2022/09/18 13:00:37;;;;;;;3.05;0.73;;;;;;;16.63;55.67;100614.31;6295851;28;20230;-80
2022/09/18 13:04:06;;;;;;;0.87;0.73;;;;;;;15.66;60.03;100625.69;6286967;28;20238;-78
2022/09/18 13:07:32;;;;;;;1.63;0.73;;;;;;;14.71;62.60;100628.31;6302562;28;20606;-77
2022/09/18 13:10:59;;;;;;;3.60;1.07;;;;;;;14.28;64.86;100624.03;6295205;28;20538;-77
2022/09/18 13:14:25;;;;;;;1.93;0.87;;;;;;;14.34;66.80;100620.66;6297143;28;20223;-78
2022/09/18 13:17:53;;;;;;;0.30;0.30;;;;;;;14.24;64.02;100625.34;6269895;28;20250;-78
2022/09/18 13:21:18;;;;;;;3.00;0.90;;;;;;;14.24;63.76;100630.78;6295361;28;20227;-77
2022/09/18 13:24:40;;;;;;;4.93;1.47;;;;;;;14.14;64.09;100618.38;6281318;28;20259;-76
2022/09/18 13:28:04;;;;;;;1.07;0.40;;;;;;;14.31;64.02;100620.97;6294088;28;20226;-78
2022/09/18 13:31:28;;;;;;;1.13;0.60;;;;;;;14.08;64.02;100617.16;6292260;28;20222;-77
2022/09/18 13:34:53;;;;;;;2.13;0.43;;;;;;;13.74;65.40;100620.94;6281040;28;20235;-77
2022/09/18 13:38:18;;;;;;;0.43;0.40;;;;;;;13.95;65.50;100616.78;6290982;28;20250;-78
2022/09/18 13:41:45;;;;;;;0.40;0.40;;;;;;;13.85;66.50;100629.59;6290497;28;20322;-77
2022/09/18 13:45:19;;;;;;;2.13;0.77;;;;;;;13.82;66.92;100623.69;6306556;28;20456;-75
2022/09/18 13:48:44;;;;;;;0.83;0.53;;;;;;;13.71;66.82;100615.81;6286684;28;20253;-77
2022/09/18 13:52:42;;;;;;;1.10;0.40;;;;;;;13.46;66.79;100613.00;6304918;28;20321;-76
2022/09/18 13:56:05;;;;;;;0.67;0.67;;;;;;;13.52;67.11;100611.50;6269986;28;20234;-77
2022/09/18 13:59:46;;;;;;;1.67;0.70;;;;;;;13.51;68.30;100612.53;6297592;28;20230;-74
2022/09/18 14:03:35;;;;;;;2.90;0.83;;;;;;;13.71;68.00;100613.13;6302017;28;20246;-74
2022/09/18 14:06:56;;;;;;;3.90;1.70;;;;;;;13.77;68.46;100624.16;6294988;28;20513;-74
2022/09/18 14:10:24;;;;;;;0.97;0.73;;;;;;;13.52;69.49;100660.25;6312490;28;20639;-72
2022/09/18 14:13:52;;;;;;;1.63;0.50;;;;;;;12.45;72.22;100666.81;6314368;28;20557;-74
2022/09/18 14:17:15;;;;;;;0.50;0.43;;;;;;;11.72;75.48;100653.44;6310175;28;20226;-73
2022/09/18 14:20:36;;;;;;;1.37;0.47;;;;;;;11.73;75.14;100637.09;6310553;28;20238;-74
2022/09/18 14:24:42;;;;;;;0.63;0.40;;;;;;;11.70;75.46;100625.75;6295862;28;20236;-75
2022/09/18 14:28:06;;;;;;;0.30;0.30;;;;;;;12.40;72.75;100622.31;6197835;28;20324;-73
2022/09/18 14:31:31;;;;;;;0.50;0.50;;;;;;;12.63;73.01;100610.00;6310003;28;20235;-74
2022/09/18 14:35:15;;;;;;;0.70;0.70;;;;;;;13.35;70.83;100599.75;6314076;28;20690;-74
2022/09/18 14:38:37;;;;;;;1.13;0.53;;;;;;;13.18;71.34;100594.41;6304667;28;20215;-74
2022/09/18 14:42:00;;;;;;;0.93;0.87;;;;;;;13.11;71.00;100585.22;6300817;28;20690;-74
2022/09/18 14:45:28;;;;;;;1.20;0.60;;;;;;;13.93;68.76;100577.31;6312351;28;20222;-75
2022/09/18 14:48:51;;;;;;;0.63;0.53;;;;;;;14.13;67.88;100579.56;6308263;28;20249;-75
2022/09/18 14:52:20;;;;;;;0.80;0.47;;;;;;;13.82;69.44;100570.34;6305634;28;20227;-75
2022/09/18 14:55:41;;;;;;;1.97;0.93;;;;;;;14.68;68.11;100574.41;6301601;28;20530;-74
2022/09/18 14:59:05;;;;;;;2.07;0.77;;;;;;;14.41;67.31;100564.72;6292801;28;20247;-78
2022/09/18 15:02:31;;;;;;;0.47;0.33;;;;;;;13.81;69.08;100568.63;6285411;28;20231;-80
2022/09/18 15:05:57;;;;;;;1.20;0.60;;;;;;;13.53;70.04;100569.88;6301155;28;20230;-77
2022/09/18 15:09:24;;;;;;;2.53;0.57;;;;;;;13.40;71.21;100574.91;6267729;28;20230;-87
2022/09/18 15:12:45;;;;;;;2.43;1.23;;;;;;;14.38;69.07;100569.63;6297372;28;20223;-77
2022/09/18 15:16:21;;;;;;;1.43;1.33;;;;;;;14.90;66.72;100565.56;6296010;28;20231;-93
2022/09/18 15:19:54;;;;;;;0.60;0.60;;;;;;;14.26;68.39;100574.53;6299562;28;20246;-85
2022/09/18 15:23:25;;;;;;;0.50;0.50;;;;;;;14.19;68.71;100561.78;6295696;28;20234;-81
2022/09/18 15:26:49;;;;;;;1.30;1.03;;;;;;;13.86;69.88;100566.28;6309587;28;20247;-89
2022/09/18 15:30:19;;;;;;;1.10;0.70;;;;;;;13.37;71.72;100559.00;6299179;28;20242;-78
2022/09/18 15:33:57;;;;;;;1.23;0.93;;;;;;;13.29;72.23;100553.50;6284772;28;20317;-80
2022/09/18 15:37:21;;;;;;;2.03;1.20;;;;;;;13.43;72.44;100547.50;6307570;28;20231;-79
2022/09/18 15:40:46;;;;;;;0.77;0.77;;;;;;;13.97;71.07;100548.88;6287518;28;20230;-80
2022/09/18 15:44:51;;;;;;;1.97;0.80;;;;;;;14.04;70.11;100550.75;6305945;28;20603;-85
2022/09/18 15:48:46;;;;;;;1.93;0.63;;;;;;;14.26;70.19;100546.53;6304745;28;20238;-81
2022/09/18 15:52:34;;;;;;;2.70;1.10;;;;;;;14.38;69.88;100546.09;6291223;28;20345;-80
2022/09/18 15:56:11;;;;;;;1.00;0.70;;;;;;;13.33;72.82;100555.72;6290458;28;20599;-79
2022/09/18 15:59:35;;;;;;;3.33;0.87;;;;;;;13.32;72.67;100562.19;6301097;28;20816;-78
2022/09/18 16:02:58;;;;;;;5.40;1.37;;;;;;;13.96;70.21;100547.16;6302419;28;20265;-84
2022/09/18 16:06:26;;;;;;;1.80;0.80;;;;;;;13.60;71.42;100544.69;6293136;28;20218;-82
2022/09/18 16:09:51;;;;;;;1.23;0.50;;;;;;;13.77;69.48;100545.59;6285931;28;20222;-82